»·PEaware :: N480ES KBZN-KRKS

N480ES :: KBZN-KRKS

FLIGHT INFORMATION

Flight Status: Arrived
Operator: Privately registered:
United States
More flights under this callsign
Pilot: Tom L. (6372)
Aircraft: MITSUBISHI MU-2 MARQUISE
(MU2)
More flights by this aircraft type
Origin: KBZN Gallatin
United States
Destination: KRKS Rock Springs-Sweetwater
United States
More flights between these airports :: More routes between these airports
Route: +BOBKT4 BOY V187 OCS
File this flight plan on PilotEdge
Remarks:
Altitude:
(Current/Filed)
25,000ft
Speed:
(Current/Filed)
235kts
Departed: 17-Jan-20 01:38 PM
Arrived: 17-Jan-20 02:50 PM
Distance/Time
Traveled:
266nm/1:11
Distance/Time
To Go:
Arrived

Flight Plot

Page will automatically refresh every two minutes.

Flight plan parsing failed; only flown route is shown


Map Options




Map Legend


Flown Route
Filed Route
Departure Airport
Arrival Airport
Navaid (VOR, NDB)
Fix

Horizontal Profiles

Position Reports

Time Latitude Longitude Heading Altitude Ground
Speed
17-Jan-20 13:14 45.774696 -111.154643 223 4473ft 0kts
17-Jan-20 13:15 45.774696 -111.154643 223 4473ft 0kts
17-Jan-20 13:16 45.774696 -111.154643 223 4473ft 0kts
17-Jan-20 13:17 45.774696 -111.154643 223 4473ft 0kts
17-Jan-20 13:18 45.774695 -111.154645 223 4473ft 0kts
17-Jan-20 13:19 45.774692 -111.154650 223 4473ft 0kts
17-Jan-20 13:20 45.774684 -111.154660 223 4473ft 0kts
17-Jan-20 13:21 45.774677 -111.154670 223 4473ft 0kts
17-Jan-20 13:22 45.774670 -111.154679 223 4473ft 0kts
17-Jan-20 13:23 45.774663 -111.154689 222 4473ft 0kts
17-Jan-20 13:24 45.774656 -111.154699 222 4473ft 0kts
17-Jan-20 13:25 45.774648 -111.154708 222 4473ft 0kts
17-Jan-20 13:26 45.774641 -111.154718 222 4473ft 0kts
17-Jan-20 13:27 45.774634 -111.154728 221 4473ft 0kts
17-Jan-20 13:28 45.774626 -111.154737 221 4473ft 0kts
17-Jan-20 13:29 45.774619 -111.154747 221 4473ft 0kts
17-Jan-20 13:30 45.774761 -111.154301 36 4473ft 7kts
17-Jan-20 13:31 45.777228 -111.155345 309 4473ft 15kts
17-Jan-20 13:32 45.780418 -111.159901 314 4473ft 19kts
17-Jan-20 13:33 45.784188 -111.165113 313 4473ft 15kts
17-Jan-20 13:34 45.786835 -111.168019 37 4473ft 10kts
17-Jan-20 13:35 45.787344 -111.167290 47 4473ft 0kts
17-Jan-20 13:36 45.787393 -111.165490 137 4473ft 28kts
17-Jan-20 13:37 45.758997 -111.122414 134 6491ft 178kts
17-Jan-20 13:38 45.716600 -111.062415 134 8210ft 241kts
17-Jan-20 13:39 45.669113 -110.992404 118 9522ft 238kts
17-Jan-20 13:40 45.656256 -110.904113 94 10882ft 223kts
17-Jan-20 13:41 45.647678 -110.818946 100 12372ft 213kts
17-Jan-20 13:42 45.603248 -110.759897 139 13891ft 228kts
17-Jan-20 13:43 45.549974 -110.710402 139 15387ft 229kts
17-Jan-20 13:44 45.496497 -110.660625 139 16883ft 230kts
17-Jan-20 13:45 45.442508 -110.610445 139 18385ft 231kts
17-Jan-20 13:46 45.388660 -110.560525 139 19876ft 232kts
17-Jan-20 13:47 45.334519 -110.510469 139 21374ft 230kts
17-Jan-20 13:48 45.281073 -110.461145 138 22866ft 228kts
17-Jan-20 13:49 45.227886 -110.412162 138 24361ft 228kts
17-Jan-20 13:50 45.171826 -110.360575 140 24926ft 259kts
17-Jan-20 13:51 45.109111 -110.303201 140 24913ft 272kts
17-Jan-20 13:52 45.045227 -110.244855 140 24909ft 275kts
17-Jan-20 13:53 44.980790 -110.186145 140 24905ft 276kts
17-Jan-20 13:54 44.919771 -110.121852 131 24901ft 270kts
17-Jan-20 13:55 44.864673 -110.050262 131 24898ft 269kts
17-Jan-20 13:56 44.809444 -109.979042 130 24893ft 270kts
17-Jan-20 13:57 44.753453 -109.906992 130 24895ft 273kts
17-Jan-20 13:58 44.697208 -109.834836 130 24895ft 274kts
17-Jan-20 13:59 44.640975 -109.762889 130 24896ft 274kts
17-Jan-20 14:01 44.584426 -109.690735 130 24896ft 274kts
17-Jan-20 14:02 44.527945 -109.618868 130 24897ft 274kts
17-Jan-20 14:03 44.471413 -109.547129 130 24896ft 275kts
17-Jan-20 14:04 44.414525 -109.475140 130 24897ft 275kts
17-Jan-20 14:05 44.357791 -109.403540 130 24899ft 275kts
17-Jan-20 14:06 44.301000 -109.332020 131 24899ft 276kts
17-Jan-20 14:07 44.243760 -109.260234 130 24896ft 276kts
17-Jan-20 14:08 44.186601 -109.188737 131 24899ft 276kts
17-Jan-20 14:09 44.129462 -109.117353 130 24892ft 276kts
17-Jan-20 14:10 44.072109 -109.045952 130 24888ft 276kts
17-Jan-20 14:11 44.014863 -108.974876 131 24880ft 276kts
17-Jan-20 14:12 43.957589 -108.903963 132 24880ft 275kts
17-Jan-20 14:13 43.900787 -108.833820 132 24863ft 276kts
17-Jan-20 14:14 43.842926 -108.762563 132 24858ft 275kts
17-Jan-20 14:15 43.785623 -108.692183 132 24856ft 276kts
17-Jan-20 14:16 43.727985 -108.621580 132 24852ft 276kts
17-Jan-20 14:17 43.670410 -108.551243 132 24850ft 276kts
17-Jan-20 14:18 43.611889 -108.479895 132 24344ft 290kts
17-Jan-20 14:19 43.550167 -108.404926 132 23157ft 299kts
17-Jan-20 14:20 43.487161 -108.329933 140 21960ft 303kts
17-Jan-20 14:21 43.402241 -108.323075 193 20771ft 327kts
17-Jan-20 14:21 43.329772 -108.352124 193 19777ft 325kts
17-Jan-20 14:23 43.228930 -108.391793 194 18381ft 321kts
17-Jan-20 14:24 43.143539 -108.425213 194 17179ft 316kts
17-Jan-20 14:24 43.073467 -108.452417 193 16181ft 313kts
17-Jan-20 14:26 42.975919 -108.454649 173 15819ft 291kts
17-Jan-20 14:26 42.909388 -108.444410 171 15816ft 287kts
17-Jan-20 14:27 42.829976 -108.430264 170 15814ft 287kts
17-Jan-20 14:29 42.737693 -108.413121 170 15813ft 287kts
17-Jan-20 14:29 42.671454 -108.400326 170 15806ft 287kts
17-Jan-20 14:30 42.592370 -108.384583 170 15804ft 287kts
17-Jan-20 14:31 42.513134 -108.368378 170 15801ft 288kts
17-Jan-20 14:32 42.433843 -108.351745 170 15798ft 289kts
17-Jan-20 14:33 42.356144 -108.335132 170 15794ft 289kts
17-Jan-20 14:34 42.275380 -108.322366 186 15429ft 295kts
17-Jan-20 14:35 42.195369 -108.352536 199 14602ft 303kts
17-Jan-20 14:36 42.116686 -108.394546 204 13617ft 305kts
17-Jan-20 14:37 42.041371 -108.442999 207 12826ft 293kts
17-Jan-20 14:38 41.970505 -108.491186 207 12782ft 281kts
17-Jan-20 14:39 41.900881 -108.538552 207 12781ft 279kts
17-Jan-20 14:40 41.832417 -108.587308 209 12698ft 281kts
17-Jan-20 14:41 41.763154 -108.636896 208 11697ft 277kts
17-Jan-20 14:42 41.695657 -108.684879 207 10699ft 272kts
17-Jan-20 14:43 41.631929 -108.730065 207 9835ft 241kts
17-Jan-20 14:44 41.575365 -108.770075 207 9757ft 216kts
17-Jan-20 14:45 41.553963 -108.838794 285 9675ft 220kts
17-Jan-20 14:46 41.569176 -108.920152 284 8757ft 221kts
17-Jan-20 14:47 41.582470 -108.996091 283 7583ft 199kts
17-Jan-20 14:48 41.593262 -109.057108 284 6763ft 117kts
17-Jan-20 14:49 41.596801 -109.074728 355 6762ft 15kts
17-Jan-20 14:50 41.597833 -109.074274 16 6762ft 0kts
17-Jan-20 14:51 41.597833 -109.074274 16 6762ft 0kts
17-Jan-20 14:52 41.597833 -109.074274 16 6762ft 0kts
17-Jan-20 14:53 41.597833 -109.074274 16 6762ft 0kts
17-Jan-20 14:54 41.597833 -109.074274 16 6762ft 0kts
17-Jan-20 14:55 41.597833 -109.074274 16 6762ft 0kts
17-Jan-20 14:56 41.597833 -109.074274 16 6762ft 0kts
17-Jan-20 14:57 41.597833 -109.074274 16 6762ft 0kts
17-Jan-20 14:58 41.597833 -109.074274 16 6762ft 0kts
17-Jan-20 14:59 41.597833 -109.074274 16 6762ft 0kts
17-Jan-20 15:00 41.597833 -109.074274 16 6762ft 0kts
17-Jan-20 15:01 41.597833 -109.074274 16 6762ft 0kts
17-Jan-20 15:02 41.597833 -109.074274 16 6762ft 0kts
17-Jan-20 15:03 41.597833 -109.074274 16 6762ft 0kts

Navigation Log

Ident Type
Flight plan parsing failed, navigation log unavailable